createdAt,value
2018-02-16T00:01:40.093Z,15.23
2018-02-16T00:04:09.437Z,15.23
2018-02-16T00:06:38.836Z,14.63
2018-02-16T00:09:08.114Z,14.68
2018-02-16T00:11:37.463Z,14.65
2018-02-16T00:14:06.810Z,14.27
2018-02-16T00:16:36.105Z,14.13
2018-02-16T00:19:05.427Z,14.15
2018-02-16T00:21:35.512Z,15.05
2018-02-16T00:24:04.824Z,14.45
2018-02-16T00:26:39.057Z,14.73
2018-02-16T00:29:08.415Z,13.00
2018-02-16T00:31:37.732Z,14.27
2018-02-16T00:34:07.061Z,15.05
2018-02-16T00:36:37.141Z,13.25
2018-02-16T00:39:06.491Z,14.35
2018-02-16T00:41:36.553Z,13.00
2018-02-16T00:44:05.962Z,13.50
2018-02-16T00:46:36.111Z,13.13
2018-02-16T00:49:05.444Z,12.05
2018-02-16T00:51:34.744Z,12.85
2018-02-16T00:54:04.044Z,12.50
2018-02-16T00:56:33.375Z,12.55
2018-02-16T00:59:02.735Z,12.85
2018-02-16T01:01:32.806Z,12.52
2018-02-16T01:04:02.306Z,12.25
2018-02-16T01:06:31.626Z,13.00
2018-02-16T01:09:00.928Z,12.05
2018-02-16T01:11:30.235Z,13.45
2018-02-16T01:13:59.548Z,13.95
2018-02-16T01:16:28.894Z,10.95
2018-02-16T01:18:58.227Z,12.40
2018-02-16T01:21:27.739Z,12.80
2018-02-16T01:23:57.060Z,11.95
2018-02-16T01:26:26.407Z,11.95
2018-02-16T01:28:55.733Z,11.75
2018-02-16T01:31:25.012Z,11.90
2018-02-16T01:33:54.397Z,11.18
2018-02-16T01:36:23.742Z,12.63
2018-02-16T01:38:53.038Z,11.60
2018-02-16T01:41:22.347Z,11.77
2018-02-16T01:43:52.201Z,11.18
2018-02-16T01:46:21.516Z,11.93
2018-02-16T01:48:50.830Z,13.43
2018-02-16T01:51:20.142Z,11.10
2018-02-16T01:53:49.451Z,11.10
2018-02-16T01:56:18.770Z,9.88
2018-02-16T01:58:48.050Z,11.30
2018-02-16T02:01:17.375Z,10.88
2018-02-16T02:03:47.462Z,10.70
2018-02-16T02:06:16.772Z,10.40
2018-02-16T02:08:46.079Z,11.60
2018-02-16T02:11:15.345Z,9.73
2018-02-16T02:13:44.664Z,8.82
2018-02-16T02:16:13.957Z,8.75
2018-02-16T02:18:43.250Z,8.65
2018-02-16T02:21:12.559Z,8.10
2018-02-16T02:23:41.850Z,8.82
2018-02-16T02:26:11.174Z,7.80
2018-02-16T02:28:40.581Z,7.50
2018-02-16T02:31:09.858Z,7.95
2018-02-16T02:33:39.182Z,7.20
2018-02-16T02:36:08.462Z,7.55
2018-02-16T02:38:37.766Z,7.43
2018-02-16T02:41:07.070Z,7.10
2018-02-16T02:43:36.485Z,6.90
2018-02-16T02:46:05.775Z,5.80
2018-02-16T02:48:35.065Z,6.82
2018-02-16T02:51:04.370Z,6.20
2018-02-16T02:53:33.665Z,5.55
2018-02-16T02:56:03.187Z,5.22
2018-02-16T02:58:32.499Z,5.30
2018-02-16T03:01:01.811Z,5.45
2018-02-16T03:03:31.090Z,5.68
2018-02-16T03:06:00.389Z,4.28
2018-02-16T03:08:29.664Z,4.57
2018-02-16T03:10:58.981Z,3.87
2018-02-16T03:13:28.306Z,3.97
2018-02-16T03:15:57.591Z,3.70
2018-02-16T03:18:26.866Z,4.25
2018-02-16T03:20:56.161Z,5.22
2018-02-16T03:23:25.555Z,3.87
2018-02-16T03:25:54.835Z,3.90
2018-02-16T03:28:24.787Z,3.50
2018-02-16T03:30:54.077Z,3.33
2018-02-16T03:33:23.396Z,3.12
2018-02-16T03:35:52.684Z,3.30
2018-02-16T03:38:21.994Z,3.00
2018-02-16T03:40:51.291Z,3.35
2018-02-16T03:43:20.569Z,2.95
2018-02-16T03:45:49.894Z,3.22
2018-02-16T03:48:19.176Z,2.62
2018-02-16T03:50:48.458Z,2.85
2018-02-16T03:53:17.771Z,2.85
2018-02-16T03:55:47.053Z,2.45
2018-02-16T03:58:17.121Z,2.72
2018-02-16T04:00:46.424Z,2.25
2018-02-16T04:03:15.712Z,2.40
2018-02-16T04:05:45.013Z,2.22
2018-02-16T04:08:14.338Z,2.10
2018-02-16T04:10:43.651Z,2.40
2018-02-16T04:13:12.936Z,2.33
2018-02-16T04:15:42.248Z,1.90
2018-02-16T04:18:11.535Z,3.00
2018-02-16T04:20:40.841Z,2.37
2018-02-16T04:23:10.138Z,2.08
2018-02-16T04:25:39.472Z,1.83
2018-02-16T04:28:09.528Z,3.53
2018-02-16T04:30:38.846Z,2.03
2018-02-16T04:33:08.125Z,2.70
2018-02-16T04:35:37.431Z,1.92
2018-02-16T04:38:07.615Z,2.00
2018-02-16T04:40:37.669Z,2.00
2018-02-16T04:43:07.012Z,3.35
2018-02-16T04:45:36.327Z,2.70
2018-02-16T04:48:05.636Z,3.25
2018-02-16T04:50:35.005Z,3.85
2018-02-16T04:53:04.279Z,4.82
2018-02-16T04:55:33.589Z,3.65
2018-02-16T04:58:02.907Z,2.50
2018-02-16T05:00:32.159Z,2.87
2018-02-16T05:03:03.095Z,2.22
2018-02-16T05:05:32.395Z,2.60
2018-02-16T05:08:01.706Z,3.28
2018-02-16T05:10:30.983Z,2.30
2018-02-16T05:13:01.061Z,2.20
2018-02-16T05:15:30.345Z,3.47
2018-02-16T05:17:59.643Z,3.40
2018-02-16T05:20:29.635Z,2.50
2018-02-16T05:22:58.939Z,3.10
2018-02-16T05:25:28.261Z,2.70
2018-02-16T05:27:57.561Z,3.70
2018-02-16T05:30:26.928Z,2.83
2018-02-16T05:32:56.265Z,3.30
2018-02-16T05:35:25.545Z,3.60
2018-02-16T05:37:54.820Z,3.58
2018-02-16T05:40:25.820Z,2.90
2018-02-16T05:42:57.060Z,3.60
2018-02-16T05:45:26.991Z,3.22
2018-02-16T05:47:56.256Z,4.03
2018-02-16T05:50:25.547Z,4.28
2018-02-16T05:52:55.606Z,3.47
2018-02-16T05:55:24.930Z,4.00
2018-02-16T05:57:54.236Z,4.85
2018-02-16T06:00:24.294Z,4.40
2018-02-16T06:02:53.608Z,3.97
2018-02-16T06:05:22.903Z,4.55
2018-02-16T06:07:52.192Z,4.65
2018-02-16T06:10:21.476Z,4.28
2018-02-16T06:12:50.762Z,3.83
2018-02-16T06:15:20.053Z,4.43
2018-02-16T06:17:50.262Z,3.75
2018-02-16T06:20:19.554Z,4.82
2018-02-16T06:22:48.849Z,4.82
2018-02-16T06:25:18.135Z,5.53
2018-02-16T06:27:47.438Z,4.60
2018-02-16T06:30:16.722Z,5.62
2018-02-16T06:32:45.999Z,4.53
2018-02-16T06:35:15.905Z,4.55
2018-02-16T06:37:45.187Z,4.62
2018-02-16T06:40:15.369Z,4.80
2018-02-16T06:42:44.847Z,4.07
2018-02-16T06:45:14.943Z,5.25
2018-02-16T06:47:44.245Z,4.75
2018-02-16T06:50:13.539Z,4.62
2018-02-16T06:52:42.826Z,4.90
2018-02-16T06:55:12.877Z,5.62
2018-02-16T06:57:42.964Z,5.18
2018-02-16T07:00:12.266Z,6.07
2018-02-16T07:02:41.574Z,5.30
2018-02-16T07:05:10.865Z,5.85
2018-02-16T07:07:40.179Z,6.07
2018-02-16T07:10:10.284Z,6.55
2018-02-16T07:12:39.566Z,5.90
2018-02-16T07:15:08.922Z,5.87
2018-02-16T07:17:38.348Z,7.18
2018-02-16T07:20:08.697Z,6.20
2018-02-16T07:22:38.193Z,7.18
2018-02-16T07:25:07.459Z,6.82
2018-02-16T07:27:36.740Z,6.35
2018-02-16T07:30:09.453Z,5.95
2018-02-16T07:32:38.744Z,6.22
2018-02-16T07:35:08.287Z,6.32
2018-02-16T07:37:37.606Z,6.28
2018-02-16T07:40:06.898Z,7.40
2018-02-16T07:42:36.217Z,5.85
2018-02-16T07:45:05.513Z,5.85
2018-02-16T07:47:35.336Z,5.57
2018-02-16T07:50:04.635Z,6.22
2018-02-16T07:52:33.972Z,6.43
2018-02-16T07:55:03.367Z,6.70
2018-02-16T07:57:32.650Z,5.53
2018-02-16T08:00:01.942Z,6.12
2018-02-16T08:02:31.292Z,6.47
2018-02-16T08:05:00.601Z,7.62
2018-02-16T08:07:29.948Z,6.85
2018-02-16T08:09:59.271Z,6.70
2018-02-16T08:12:28.566Z,6.20
2018-02-16T08:14:57.855Z,5.85
2018-02-16T08:17:27.161Z,5.60
2018-02-16T08:19:56.467Z,5.90
2018-02-16T08:22:25.804Z,6.00
2018-02-16T08:24:56.262Z,5.57
2018-02-16T08:27:26.634Z,5.68
2018-02-16T08:30:14.166Z,5.80
2018-02-16T08:32:43.452Z,5.87
2018-02-16T08:35:12.769Z,5.53
2018-02-16T08:37:42.058Z,6.25
2018-02-16T08:40:11.351Z,6.90
2018-02-16T08:42:40.684Z,6.72
2018-02-16T08:45:09.988Z,6.47
2018-02-16T08:47:39.293Z,6.62
2018-02-16T08:50:08.602Z,6.07
2018-02-16T08:52:37.927Z,6.37
2018-02-16T08:55:07.369Z,6.75
2018-02-16T08:57:36.665Z,5.78
2018-02-16T09:00:05.955Z,6.05
2018-02-16T09:02:35.244Z,5.45
2018-02-16T09:05:04.522Z,5.80
2018-02-16T09:07:34.649Z,6.37
2018-02-16T09:10:04.750Z,6.40
2018-02-16T09:12:34.064Z,4.95
2018-02-16T09:15:03.385Z,5.40
2018-02-16T09:17:33.479Z,5.87
2018-02-16T09:20:02.783Z,5.95
2018-02-16T09:22:32.796Z,5.68
2018-02-16T09:25:02.883Z,6.62
2018-02-16T09:27:33.002Z,6.15
2018-02-16T09:30:02.284Z,5.22
2018-02-16T09:32:31.560Z,5.60
2018-02-16T09:35:00.879Z,3.70
2018-02-16T09:37:31.381Z,4.60
2018-02-16T09:40:01.207Z,4.47
2018-02-16T09:42:30.494Z,3.85
2018-02-16T09:44:59.834Z,4.10
2018-02-16T09:47:29.233Z,4.68
2018-02-16T09:49:58.579Z,3.55
2018-02-16T09:52:28.184Z,4.72
2018-02-16T09:55:01.156Z,3.95
2018-02-16T09:57:31.347Z,3.55
2018-02-16T10:00:00.619Z,4.95
2018-02-16T10:02:29.925Z,5.12
2018-02-16T10:04:59.992Z,5.07
2018-02-16T10:07:29.347Z,3.05
2018-02-16T10:09:58.666Z,4.22
2018-02-16T10:12:27.986Z,5.00
2018-02-16T10:14:57.265Z,6.45
2018-02-16T10:17:26.554Z,4.00
2018-02-16T10:19:55.855Z,3.08
2018-02-16T10:22:25.158Z,3.10
2018-02-16T10:24:55.375Z,3.50
2018-02-16T10:27:24.693Z,4.43
2018-02-16T10:29:53.973Z,4.70
2018-02-16T10:32:23.283Z,4.90
2018-02-16T10:34:52.564Z,4.95
2018-02-16T10:37:22.630Z,4.50
2018-02-16T10:39:51.929Z,5.30
2018-02-16T10:42:21.442Z,4.32
2018-02-16T10:44:50.708Z,4.60
2018-02-16T10:47:20.049Z,4.20
2018-02-16T10:49:49.395Z,4.12
2018-02-16T10:52:18.620Z,4.30
2018-02-16T10:54:47.921Z,5.20
2018-02-16T10:57:17.220Z,4.65
2018-02-16T10:59:46.510Z,5.32
2018-02-16T11:02:21.353Z,4.87
2018-02-16T11:04:56.262Z,4.00
2018-02-16T11:07:31.131Z,4.12
2018-02-16T11:10:00.464Z,4.60
2018-02-16T11:12:29.736Z,4.43
2018-02-16T11:14:59.639Z,4.90
2018-02-16T11:17:28.914Z,4.95
2018-02-16T11:19:58.229Z,5.10
2018-02-16T11:22:27.549Z,4.53
2018-02-16T11:24:56.828Z,4.65
2018-02-16T11:27:26.102Z,4.32
2018-02-16T11:29:55.442Z,4.40
2018-02-16T11:32:24.726Z,5.28
2018-02-16T11:34:54.005Z,6.12
2018-02-16T11:37:23.314Z,4.90
2018-02-16T11:39:52.630Z,6.00
2018-02-16T11:42:21.929Z,5.20
2018-02-16T11:44:51.250Z,5.97
2018-02-16T11:47:20.553Z,6.20
2018-02-16T11:49:49.866Z,5.70
2018-02-16T11:52:19.162Z,5.57
2018-02-16T11:54:48.605Z,5.55
2018-02-16T11:57:17.904Z,5.47
2018-02-16T11:59:47.176Z,4.72
2018-02-16T12:02:16.471Z,5.07
2018-02-16T12:04:45.734Z,4.45
2018-02-16T12:07:15.055Z,4.55
2018-02-16T12:09:44.344Z,4.55
2018-02-16T12:12:13.664Z,3.83
2018-02-16T12:14:42.957Z,5.32
2018-02-16T12:17:12.235Z,4.43
2018-02-16T12:19:41.578Z,3.65
2018-02-16T12:22:10.943Z,5.10
2018-02-16T12:24:40.192Z,10.27
2018-02-16T12:27:10.199Z,4.90
2018-02-16T12:29:39.517Z,4.32
2018-02-16T12:32:10.328Z,4.70
2018-02-16T12:34:39.678Z,4.53
2018-02-16T12:37:08.986Z,4.95
2018-02-16T12:39:38.277Z,4.85
2018-02-16T12:42:07.565Z,5.22
2018-02-16T12:44:37.755Z,4.07
2018-02-16T12:47:07.069Z,4.18
2018-02-16T12:49:36.363Z,4.30
2018-02-16T12:52:05.675Z,4.57
2018-02-16T12:54:35.739Z,4.47
2018-02-16T12:57:05.033Z,4.43
2018-02-16T12:59:34.344Z,5.60
2018-02-16T13:02:04.264Z,4.90
2018-02-16T13:04:38.992Z,5.70
2018-02-16T13:07:08.895Z,4.95
2018-02-16T13:09:38.611Z,5.22
2018-02-16T13:12:07.906Z,5.10
2018-02-16T13:14:37.599Z,5.95
2018-02-16T13:17:07.159Z,5.18
2018-02-16T13:19:36.458Z,4.80
2018-02-16T13:22:05.767Z,7.55
2018-02-16T13:24:35.075Z,6.35
2018-02-16T13:27:04.391Z,6.55
2018-02-16T13:29:33.692Z,5.65
2018-02-16T13:32:03.836Z,5.50
2018-02-16T13:34:33.126Z,5.10
2018-02-16T13:37:03.329Z,4.25
2018-02-16T13:39:33.386Z,4.97
2018-02-16T13:42:02.681Z,4.70
2018-02-16T13:44:32.003Z,4.35
2018-02-16T13:47:01.280Z,4.35
2018-02-16T13:49:30.664Z,4.72
2018-02-16T13:51:59.955Z,5.62
2018-02-16T13:54:29.292Z,4.70
2018-02-16T13:56:58.592Z,5.22
2018-02-16T13:59:27.883Z,6.43
2018-02-16T14:01:57.182Z,5.22
2018-02-16T14:04:26.527Z,6.05
2018-02-16T14:06:55.824Z,5.05
2018-02-16T14:09:25.125Z,6.12
2018-02-16T14:11:54.434Z,5.75
2018-02-16T14:14:23.725Z,5.25
2018-02-16T14:16:53.026Z,5.43
2018-02-16T14:19:22.339Z,5.05
2018-02-16T14:21:52.292Z,4.47
2018-02-16T14:24:21.575Z,7.55
2018-02-16T14:26:50.871Z,5.60
2018-02-16T14:29:20.943Z,4.87
2018-02-16T14:31:50.258Z,5.68
2018-02-16T14:34:19.582Z,4.75
2018-02-16T14:36:48.857Z,4.97
2018-02-16T14:39:18.155Z,5.20
2018-02-16T14:41:47.445Z,5.45
2018-02-16T14:44:16.780Z,5.18
2018-02-16T14:46:46.046Z,5.28
2018-02-16T14:49:15.368Z,5.80
2018-02-16T14:51:44.637Z,5.22
2018-02-16T14:54:13.949Z,4.18
2018-02-16T14:56:43.235Z,5.00
2018-02-16T14:59:12.516Z,5.10
2018-02-16T15:01:41.886Z,5.93
2018-02-16T15:04:11.364Z,5.22
2018-02-16T15:06:40.709Z,4.55
2018-02-16T15:09:09.946Z,4.95
2018-02-16T15:11:39.224Z,4.93
2018-02-16T15:14:08.532Z,5.10
2018-02-16T15:16:37.813Z,4.90
2018-02-16T15:19:07.116Z,5.70
2018-02-16T15:21:36.448Z,4.72
2018-02-16T15:24:05.726Z,5.10
2018-02-16T15:26:35.023Z,5.05
2018-02-16T15:29:04.327Z,4.57
2018-02-16T15:31:33.629Z,5.12
2018-02-16T15:34:03.011Z,5.15
2018-02-16T15:36:32.294Z,4.45
2018-02-16T15:39:01.626Z,5.32
2018-02-16T15:41:31.068Z,5.62
2018-02-16T15:44:00.439Z,5.20
2018-02-16T15:46:29.722Z,5.97
2018-02-16T15:48:59.049Z,6.35
2018-02-16T15:51:28.338Z,5.45
2018-02-16T15:53:57.621Z,5.75
2018-02-16T15:56:26.926Z,6.22
2018-02-16T15:58:56.832Z,6.40
2018-02-16T16:01:26.907Z,5.80
2018-02-16T16:03:56.360Z,6.15
2018-02-16T16:06:26.457Z,6.25
2018-02-16T16:08:55.735Z,6.57
2018-02-16T16:11:25.027Z,6.75
2018-02-16T16:13:54.342Z,6.72
2018-02-16T16:16:23.627Z,7.57
2018-02-16T16:18:53.658Z,5.80
2018-02-16T16:21:22.932Z,7.45
2018-02-16T16:23:52.247Z,8.18
2018-02-16T16:26:21.534Z,8.43
2018-02-16T16:28:50.850Z,7.40
2018-02-16T16:31:20.153Z,10.25
2018-02-16T16:33:50.550Z,7.68
2018-02-16T16:36:19.835Z,8.57
2018-02-16T16:38:49.122Z,8.55
2018-02-16T16:41:18.413Z,8.48
2018-02-16T16:43:49.206Z,8.27
2018-02-16T16:46:18.511Z,7.87
2018-02-16T16:48:47.825Z,8.25
2018-02-16T16:51:17.756Z,9.18
2018-02-16T16:53:47.815Z,8.38
2018-02-16T16:56:17.126Z,8.50
2018-02-16T16:58:46.425Z,7.50
2018-02-16T17:01:15.729Z,8.20
2018-02-16T17:03:45.024Z,8.00
2018-02-16T17:06:14.330Z,8.90
2018-02-16T17:08:43.644Z,9.52
2018-02-16T17:11:12.952Z,8.25
2018-02-16T17:13:42.239Z,8.48
2018-02-16T17:16:14.497Z,8.20
2018-02-16T17:18:43.839Z,9.20
2018-02-16T17:21:13.124Z,8.13
2018-02-16T17:23:42.461Z,8.45
2018-02-16T17:26:12.534Z,10.23
2018-02-16T17:28:41.819Z,8.50
2018-02-16T17:31:11.107Z,9.10
2018-02-16T17:33:40.402Z,8.65
2018-02-16T17:36:09.718Z,9.50
2018-02-16T17:38:39.002Z,9.85
2018-02-16T17:41:08.291Z,9.05
2018-02-16T17:43:37.571Z,9.45
2018-02-16T17:46:07.887Z,8.23
2018-02-16T17:48:37.226Z,8.50
2018-02-16T17:51:06.546Z,9.55
2018-02-16T17:53:35.844Z,8.65
2018-02-16T17:56:05.123Z,9.45
2018-02-16T17:58:34.491Z,9.23
2018-02-16T18:01:03.833Z,9.63
2018-02-16T18:03:33.106Z,10.30
2018-02-16T18:06:04.206Z,11.50
2018-02-16T18:08:33.479Z,15.75
2018-02-16T18:11:02.790Z,14.90
2018-02-16T18:13:32.088Z,10.05
2018-02-16T18:16:01.382Z,11.98
2018-02-16T18:18:30.685Z,14.05
2018-02-16T18:20:59.997Z,19.15
2018-02-16T18:23:29.290Z,16.92
2018-02-16T18:26:02.024Z,15.98
2018-02-16T18:28:32.079Z,15.00
2018-02-16T18:31:01.406Z,17.05
2018-02-16T18:33:30.685Z,16.52
2018-02-16T18:36:00.037Z,16.80
2018-02-16T18:38:29.357Z,15.20
2018-02-16T18:40:59.443Z,14.63
2018-02-16T18:43:28.767Z,12.85
2018-02-16T18:45:58.068Z,13.73
2018-02-16T18:48:27.351Z,14.68
2018-02-16T18:50:56.649Z,13.80
2018-02-16T18:53:25.963Z,15.43
2018-02-16T18:55:55.265Z,13.45
2018-02-16T18:58:24.560Z,12.43
2018-02-16T19:00:53.854Z,12.65
2018-02-16T19:03:23.165Z,12.95
2018-02-16T19:05:52.464Z,14.85
2018-02-16T19:08:21.912Z,13.40
2018-02-16T19:10:51.227Z,14.45
2018-02-16T19:13:20.531Z,16.00
2018-02-16T19:15:49.938Z,15.40
2018-02-16T19:18:19.222Z,14.32
2018-02-16T19:20:48.530Z,15.23
2018-02-16T19:23:17.846Z,15.73
2018-02-16T19:25:47.154Z,14.48
2018-02-16T19:28:16.473Z,15.43
2018-02-16T19:30:45.781Z,14.95
2018-02-16T19:33:15.864Z,14.50
2018-02-16T19:35:45.188Z,15.20
2018-02-16T19:38:14.488Z,15.57
2018-02-16T19:40:43.802Z,15.43
2018-02-16T19:43:13.098Z,15.30
2018-02-16T19:45:42.695Z,14.70
2018-02-16T19:48:11.998Z,15.30
2018-02-16T19:50:41.295Z,15.40
2018-02-16T19:53:10.623Z,16.48
2018-02-16T19:55:40.695Z,17.50
2018-02-16T19:58:10.053Z,16.92
2018-02-16T20:00:39.341Z,16.67
2018-02-16T20:03:09.409Z,14.07
2018-02-16T20:05:38.753Z,15.13
2018-02-16T20:08:08.829Z,14.82
2018-02-16T20:10:38.173Z,16.10
2018-02-16T20:13:08.230Z,15.45
2018-02-16T20:15:37.592Z,21.50
2018-02-16T20:18:06.944Z,25.62
2018-02-16T20:20:36.283Z,22.83
2018-02-16T20:23:05.579Z,20.70
2018-02-16T20:25:34.880Z,16.45
2018-02-16T20:28:04.189Z,17.75
2018-02-16T20:30:33.509Z,18.77
2018-02-16T20:33:02.809Z,18.83
2018-02-16T20:35:32.878Z,15.65
2018-02-16T20:38:02.172Z,16.73
2018-02-16T20:40:31.478Z,15.90
2018-02-16T20:43:00.785Z,15.82
2018-02-16T20:45:30.106Z,12.75
2018-02-16T20:47:59.490Z,13.60
2018-02-16T20:50:28.778Z,14.20
2018-02-16T20:52:58.081Z,14.77
2018-02-16T20:55:27.411Z,13.93
2018-02-16T20:57:56.685Z,15.00
2018-02-16T21:00:26.565Z,14.20
2018-02-16T21:02:55.913Z,13.85
2018-02-16T21:05:25.238Z,13.18
2018-02-16T21:07:54.583Z,13.23
2018-02-16T21:10:23.926Z,12.95
2018-02-16T21:12:53.431Z,14.57
2018-02-16T21:15:22.713Z,14.48
2018-02-16T21:17:52.054Z,12.80
2018-02-16T21:20:22.130Z,13.25
2018-02-16T21:22:51.478Z,14.20
2018-02-16T21:25:20.780Z,14.05
2018-02-16T21:27:50.115Z,13.20
2018-02-16T21:30:19.414Z,14.70
2018-02-16T21:32:48.730Z,15.38
2018-02-16T21:35:18.193Z,13.30
2018-02-16T21:37:47.521Z,13.57
2018-02-16T21:40:16.845Z,13.40
2018-02-16T21:42:46.187Z,14.15
2018-02-16T21:45:16.454Z,14.18
2018-02-16T21:47:46.880Z,14.13
2018-02-16T21:50:16.196Z,14.07
2018-02-16T21:52:45.978Z,15.13
2018-02-16T21:55:15.391Z,14.48
2018-02-16T21:57:44.860Z,13.98
2018-02-16T22:00:16.041Z,15.38
2018-02-16T22:02:45.358Z,15.98
2018-02-16T22:05:14.755Z,13.10
2018-02-16T22:07:44.182Z,15.30
2018-02-16T22:10:13.493Z,16.08
2018-02-16T22:12:42.950Z,14.35
2018-02-16T22:15:14.080Z,16.23
2018-02-16T22:17:43.578Z,16.73
2018-02-16T22:20:13.057Z,15.90
2018-02-16T22:22:42.407Z,15.30
2018-02-16T22:25:11.749Z,14.10
2018-02-16T22:27:41.939Z,14.00
2018-02-16T22:30:11.247Z,15.00
2018-02-16T22:32:40.536Z,15.10
2018-02-16T22:35:09.940Z,16.92
2018-02-16T22:37:39.236Z,14.73
2018-02-16T22:40:08.553Z,15.13
2018-02-16T22:42:38.376Z,16.50
2018-02-16T22:45:07.676Z,15.02
2018-02-16T22:47:37.779Z,14.27
2018-02-16T22:50:07.313Z,15.13
2018-02-16T22:52:36.664Z,16.40
2018-02-16T22:55:05.941Z,16.15
2018-02-16T22:57:35.278Z,15.40
2018-02-16T23:00:04.561Z,15.20
2018-02-16T23:02:34.008Z,16.23
2018-02-16T23:05:03.324Z,16.58
2018-02-16T23:07:32.623Z,15.15
2018-02-16T23:10:01.935Z,15.32
2018-02-16T23:12:31.229Z,17.00
2018-02-16T23:15:00.528Z,15.35
2018-02-16T23:17:30.234Z,15.10
2018-02-16T23:19:59.559Z,17.65
2018-02-16T23:22:29.635Z,17.10
2018-02-16T23:24:58.941Z,17.08
2018-02-16T23:27:28.276Z,18.20
2018-02-16T23:29:58.355Z,18.27
2018-02-16T23:32:27.769Z,17.65
2018-02-16T23:34:57.071Z,17.00
2018-02-16T23:37:26.403Z,16.92
2018-02-16T23:39:55.700Z,17.30
2018-02-16T23:44:59.622Z,16.75
2018-02-16T23:47:28.940Z,16.73
2018-02-16T23:49:58.247Z,16.67
2018-02-16T23:52:27.642Z,17.33
2018-02-16T23:54:56.946Z,18.10
2018-02-16T23:57:26.250Z,17.00
2018-02-16T23:59:55.546Z,17.85
